Time;durP1;ratioP1;P1;durP2;ratioP2;P2;SDS_P1;SDS_P2;PMS_P1;PMS_P2;Temp;Humidity;BMP_temperature;BMP_pressure;BME280_temperature;BME280_humidity;BME280_pressure;Samples;Min_cycle;Max_cycle;Signal;HPM_P1;HPM_P2
2022/01/08 00:01:19;;;;;;;0.50;0.10;;;4.60;1.00;;;;;;5053408;28;20949;-75
2022/01/08 00:03:51;;;;;;;0.50;0.10;;;4.60;1.00;;;;;;5052333;28;20474;-74
2022/01/08 00:06:19;;;;;;;0.60;0.40;;;4.60;1.00;;;;;;5051915;28;20943;-74
2022/01/08 00:08:48;;;;;;;0.50;0.10;;;4.60;1.00;;;;;;5051887;28;20451;-75
2022/01/08 00:11:20;;;;;;;0.50;0.10;;;4.50;1.00;;;;;;5052722;28;20580;-74
2022/01/08 00:13:48;;;;;;;0.50;0.10;;;4.50;1.00;;;;;;5053277;28;20476;-75
2022/01/08 00:16:16;;;;;;;1.23;0.60;;;4.40;1.00;;;;;;5054505;28;20454;-74
2022/01/08 00:18:44;;;;;;;0.50;0.20;;;4.40;1.00;;;;;;5053689;28;20988;-74
2022/01/08 00:21:13;;;;;;;0.50;0.10;;;4.40;1.00;;;;;;5052926;28;20444;-75
2022/01/08 00:23:41;;;;;;;1.17;1.17;;;4.40;1.00;;;;;;5052743;28;21000;-75
2022/01/08 00:26:09;;;;;;;0.50;0.10;;;4.30;1.00;;;;;;5052410;28;20443;-74
2022/01/08 00:28:37;;;;;;;12.20;11.20;;;4.20;1.00;;;;;;5051916;28;20448;-74
2022/01/08 00:31:05;;;;;;;0.50;0.10;;;4.20;1.00;;;;;;5052536;28;20478;-74
2022/01/08 00:33:32;;;;;;;0.77;0.77;;;4.20;1.00;;;;;;5056416;28;20513;-75
2022/01/08 00:36:00;;;;;;;0.60;0.57;;;4.20;1.00;;;;;;5056985;28;20900;-74
2022/01/08 00:38:29;;;;;;;0.50;0.10;;;4.20;1.00;;;;;;5056342;28;20440;-74
2022/01/08 00:40:57;;;;;;;0.70;0.50;;;4.10;1.00;;;;;;5056768;28;20822;-74
2022/01/08 00:43:25;;;;;;;0.50;0.10;;;4.00;1.00;;;;;;5070882;28;20473;-75
2022/01/08 00:45:53;;;;;;;0.50;0.10;;;4.00;1.00;;;;;;5067569;28;20458;-75
2022/01/08 00:48:21;;;;;;;0.50;0.30;;;4.10;1.00;;;;;;5058399;28;20468;-74
2022/01/08 00:50:50;;;;;;;0.50;0.10;;;4.10;1.00;;;;;;5054430;28;20505;-75
2022/01/08 00:53:17;;;;;;;0.50;0.30;;;4.10;1.00;;;;;;5055040;28;20451;-74
2022/01/08 00:55:47;;;;;;;0.80;0.30;;;4.10;1.00;;;;;;5055903;28;20456;-75
2022/01/08 00:58:15;;;;;;;0.50;0.10;;;4.10;1.00;;;;;;5054655;28;20449;-75
2022/01/08 01:00:42;;;;;;;0.50;0.10;;;4.00;1.00;;;;;;5051865;28;20437;-75
2022/01/08 01:03:10;;;;;;;0.50;0.10;;;4.10;1.00;;;;;;5054843;28;20496;-74
2022/01/08 01:05:38;;;;;;;0.50;0.10;;;4.00;1.00;;;;;;5060762;28;20897;-75
2022/01/08 01:08:07;;;;;;;0.50;0.10;;;4.10;1.00;;;;;;5067407;28;20448;-74
2022/01/08 01:10:35;;;;;;;0.50;0.10;;;4.20;1.00;;;;;;5073171;28;20508;-74
2022/01/08 01:13:04;;;;;;;0.50;0.10;;;4.20;1.00;;;;;;5051008;28;20441;-75
2022/01/08 01:15:32;;;;;;;0.50;0.10;;;4.30;1.00;;;;;;5053967;28;20458;-75
2022/01/08 01:17:59;;;;;;;0.50;0.10;;;4.30;1.00;;;;;;5054482;28;20831;-74
2022/01/08 01:20:27;;;;;;;0.50;0.10;;;4.30;1.00;;;;;;5043683;28;20463;-74
2022/01/08 01:23:00;;;;;;;0.50;0.10;;;4.40;1.00;;;;;;5046262;28;20463;-74
2022/01/08 01:25:33;;;;;;;0.50;0.20;;;4.40;1.00;;;;;;5057730;28;20438;-76
2022/01/08 01:28:14;;;;;;;0.50;0.10;;;4.50;1.00;;;;;;5065141;28;20445;-74
2022/01/08 01:41:05;;;;;;;0.73;0.53;;;4.50;1.00;;;;;;5058215;28;20485;-75
2022/01/08 01:42:30;;;;;;;2.70;1.03;;;4.30;1.00;;;;;;5053775;28;20436;-75
2022/01/08 01:47:44;;;;;;;0.50;0.10;;;4.10;1.00;;;;;;5053756;28;20838;-75
2022/01/08 01:50:12;;;;;;;0.50;0.10;;;4.10;1.00;;;;;;5058704;28;20447;-74
2022/01/08 01:52:40;;;;;;;0.50;0.10;;;4.00;1.00;;;;;;5059315;28;20448;-75
2022/01/08 01:55:08;;;;;;;0.50;0.10;;;4.00;1.00;;;;;;5057461;28;20598;-75
2022/01/08 01:57:37;;;;;;;0.50;0.10;;;4.00;1.00;;;;;;5063381;28;20455;-74
2022/01/08 02:00:07;;;;;;;0.60;0.33;;;4.00;1.00;;;;;;5058787;28;20455;-74
2022/01/08 02:02:35;;;;;;;0.50;0.10;;;4.00;1.00;;;;;;5060341;28;20444;-75
2022/01/08 02:05:05;;;;;;;0.50;0.10;;;3.90;1.00;;;;;;5057168;28;20502;-75
2022/01/08 02:07:33;;;;;;;0.50;0.10;;;3.90;1.00;;;;;;5060674;28;20472;-75
2022/01/08 02:10:01;;;;;;;0.50;0.10;;;3.90;1.00;;;;;;5059352;28;20530;-74
2022/01/08 02:12:32;;;;;;;0.50;0.20;;;3.80;1.00;;;;;;5061259;28;20476;-75
2022/01/08 02:15:00;;;;;;;0.50;0.10;;;3.80;1.00;;;;;;5060618;28;20466;-74
2022/01/08 02:17:28;;;;;;;0.50;0.10;;;3.70;1.00;;;;;;5058603;28;20463;-76
2022/01/08 02:19:58;;;;;;;0.50;0.10;;;3.70;1.00;;;;;;5055958;28;20448;-76
2022/01/08 02:22:25;;;;;;;0.50;0.10;;;3.70;1.00;;;;;;5062205;28;20817;-75
2022/01/08 02:24:53;;;;;;;0.50;0.10;;;3.60;1.00;;;;;;5056503;28;20491;-74
2022/01/08 02:27:21;;;;;;;0.50;0.10;;;3.50;1.00;;;;;;5056885;28;20445;-76
2022/01/08 02:29:50;;;;;;;0.50;0.20;;;3.50;1.00;;;;;;5057000;28;20460;-71
2022/01/08 02:32:22;;;;;;;0.50;0.10;;;3.50;1.00;;;;;;5052081;28;21027;-74
2022/01/08 02:34:50;;;;;;;0.50;0.10;;;3.60;1.00;;;;;;5053083;28;20536;-74
2022/01/08 02:37:25;;;;;;;0.50;0.10;;;3.70;1.00;;;;;;5053802;28;20479;-75
2022/01/08 02:39:53;;;;;;;0.50;0.10;;;3.70;1.00;;;;;;5046340;28;20474;-76
2022/01/08 02:42:20;;;;;;;0.50;0.10;;;3.60;1.00;;;;;;5049046;28;20466;-76
2022/01/08 02:44:50;;;;;;;0.50;0.10;;;3.60;1.00;;;;;;5052092;28;20475;-75
2022/01/08 02:47:22;;;;;;;0.50;0.10;;;3.60;1.00;;;;;;5052790;28;20475;-75
2022/01/08 02:49:52;;;;;;;0.50;0.10;;;3.50;1.00;;;;;;5053664;28;20439;-74
2022/01/08 02:52:23;;;;;;;0.50;0.20;;;3.50;1.00;;;;;;5061199;28;20479;-75
2022/01/08 02:54:51;;;;;;;0.50;0.20;;;3.50;1.00;;;;;;5052227;28;20554;-76
2022/01/08 02:57:19;;;;;;;0.60;0.40;;;3.40;1.00;;;;;;5052838;28;20447;-76
2022/01/08 02:59:47;;;;;;;0.50;0.20;;;3.30;1.00;;;;;;5052662;28;20452;-75
2022/01/08 03:02:14;;;;;;;0.50;0.10;;;3.20;1.00;;;;;;5045891;28;20470;-75
2022/01/08 03:04:44;;;;;;;0.50;0.10;;;3.20;1.00;;;;;;5036932;28;20833;-75
2022/01/08 03:07:12;;;;;;;0.50;0.10;;;3.10;1.00;;;;;;5055008;28;20529;-74
2022/01/08 03:09:42;;;;;;;0.50;0.10;;;3.10;1.00;;;;;;5064240;28;20516;-75
2022/01/08 03:12:10;;;;;;;0.50;0.10;;;3.10;1.00;;;;;;5052659;28;20486;-75
2022/01/08 03:14:38;;;;;;;2.53;0.73;;;3.10;1.00;;;;;;5054405;28;20844;-76
2022/01/08 03:17:06;;;;;;;0.50;0.17;;;3.10;1.00;;;;;;5059273;28;20651;-75
2022/01/08 03:19:35;;;;;;;0.50;0.10;;;3.00;1.00;;;;;;5065582;28;20453;-74
2022/01/08 03:22:05;;;;;;;0.50;0.20;;;3.00;1.00;;;;;;5052931;28;20824;-75
2022/01/08 03:24:33;;;;;;;0.60;0.30;;;2.90;1.00;;;;;;5048361;28;20459;-75
2022/01/08 03:27:03;;;;;;;1.20;0.70;;;2.90;1.00;;;;;;5032696;28;20448;-75
2022/01/08 03:29:31;;;;;;;0.63;0.20;;;2.90;1.00;;;;;;5033598;28;20996;-75
2022/01/08 03:31:59;;;;;;;0.50;0.10;;;2.80;1.00;;;;;;5040598;28;20471;-76
2022/01/08 03:34:27;;;;;;;0.50;0.10;;;2.70;1.00;;;;;;5045113;28;20466;-74
2022/01/08 03:36:55;;;;;;;0.50;0.10;;;2.70;1.00;;;;;;5042280;28;20471;-75
2022/01/08 03:39:23;;;;;;;0.50;0.10;;;2.60;1.00;;;;;;5049058;28;20945;-75
2022/01/08 03:41:51;;;;;;;0.50;0.10;;;2.60;1.00;;;;;;5046407;28;20436;-75
2022/01/08 03:44:20;;;;;;;0.50;0.10;;;2.60;1.00;;;;;;5041674;28;20554;-75
2022/01/08 03:46:48;;;;;;;0.70;0.60;;;2.60;1.00;;;;;;5041454;28;20877;-76
2022/01/08 03:49:25;;;;;;;0.50;0.10;;;2.60;1.00;;;;;;5040709;28;20525;-75
2022/01/08 03:51:54;;;;;;;1.37;0.40;;;2.60;1.00;;;;;;5041749;28;20988;-74
2022/01/08 03:54:22;;;;;;;0.50;0.10;;;2.60;1.00;;;;;;5043271;28;20846;-75
2022/01/08 03:56:50;;;;;;;0.50;0.10;;;2.70;1.00;;;;;;5040530;28;20543;-75
2022/01/08 03:59:19;;;;;;;0.50;0.10;;;2.70;1.00;;;;;;5041722;28;20446;-75
2022/01/08 04:01:47;;;;;;;0.50;0.10;;;2.70;1.00;;;;;;5042484;28;20423;-75
2022/01/08 04:04:15;;;;;;;0.50;0.10;;;2.70;1.00;;;;;;5040755;28;20520;-76
2022/01/08 04:06:43;;;;;;;0.50;0.10;;;2.70;1.00;;;;;;5042395;28;20437;-74
2022/01/08 04:09:11;;;;;;;0.50;0.10;;;2.60;1.00;;;;;;5046355;28;20936;-74
2022/01/08 04:11:38;;;;;;;1.63;0.30;;;2.60;1.00;;;;;;5044598;28;20813;-77
2022/01/08 04:14:07;;;;;;;0.50;0.10;;;2.70;1.00;;;;;;5043636;28;20492;-75
2022/01/08 04:16:41;;;;;;;0.50;0.10;;;2.60;1.00;;;;;;5045338;28;20434;-75
2022/01/08 04:19:09;;;;;;;0.50;0.10;;;2.60;1.00;;;;;;5045895;28;20441;-76
2022/01/08 04:24:22;;;;;;;0.50;0.10;;;2.60;1.00;;;;;;5045506;28;20459;-75
2022/01/08 04:26:51;;;;;;;0.53;0.33;;;2.60;1.00;;;;;;5043989;28;20443;-76
2022/01/08 04:29:19;;;;;;;0.50;0.20;;;2.60;1.00;;;;;;5044315;28;20474;-75
2022/01/08 04:31:48;;;;;;;0.50;0.10;;;2.60;1.00;;;;;;5056458;28;20445;-76
2022/01/08 04:34:16;;;;;;;0.50;0.20;;;2.60;1.00;;;;;;5057238;28;20473;-75
2022/01/08 04:36:44;;;;;;;0.50;0.10;;;2.60;1.00;;;;;;5055254;28;20438;-76
2022/01/08 04:39:12;;;;;;;0.50;0.10;;;2.60;1.00;;;;;;5054803;28;20445;-75
2022/01/08 04:41:41;;;;;;;0.50;0.10;;;2.60;1.00;;;;;;5054977;28;20449;-75
2022/01/08 04:44:10;;;;;;;0.50;0.20;;;2.60;1.00;;;;;;5054991;28;20558;-75
2022/01/08 04:46:40;;;;;;;1.50;0.53;;;2.60;1.00;;;;;;5054869;28;20449;-74
2022/01/08 04:49:10;;;;;;;0.50;0.10;;;2.60;1.00;;;;;;5054418;28;20529;-76
2022/01/08 04:51:38;;;;;;;0.50;0.10;;;2.60;1.00;;;;;;5054740;28;20441;-75
2022/01/08 04:54:06;;;;;;;0.50;0.10;;;2.60;1.00;;;;;;5056935;28;20501;-75
2022/01/08 04:56:34;;;;;;;0.50;0.10;;;2.60;1.00;;;;;;5055465;28;20435;-74
2022/01/08 04:59:01;;;;;;;0.50;0.10;;;2.70;1.00;;;;;;5054450;28;20446;-76
2022/01/08 05:01:29;;;;;;;0.50;0.10;;;2.70;1.00;;;;;;5053893;28;20449;-74
2022/01/08 05:03:57;;;;;;;0.50;0.10;;;2.70;1.00;;;;;;5051664;28;21004;-74
2022/01/08 05:06:27;;;;;;;0.50;0.10;;;2.70;1.00;;;;;;5054424;28;20538;-74
2022/01/08 05:08:55;;;;;;;0.50;0.10;;;2.70;1.00;;;;;;5060754;28;20449;-75
2022/01/08 05:11:23;;;;;;;0.50;0.10;;;2.70;1.00;;;;;;5057478;28;20795;-75
2022/01/08 05:13:51;;;;;;;0.50;0.10;;;2.70;1.00;;;;;;5054098;28;20485;-76
2022/01/08 05:16:18;;;;;;;1.37;0.87;;;2.70;1.00;;;;;;5053718;28;20456;-76
2022/01/08 05:18:47;;;;;;;0.50;0.10;;;2.70;1.00;;;;;;5053192;28;20440;-74
2022/01/08 05:21:22;;;;;;;0.50;0.20;;;2.80;1.00;;;;;;5053634;28;20955;-75
2022/01/08 05:23:51;;;;;;;0.50;0.10;;;2.80;1.00;;;;;;5054056;28;20454;-75
2022/01/08 05:26:19;;;;;;;0.50;0.10;;;2.80;1.00;;;;;;5053678;28;20450;-73
2022/01/08 05:28:47;;;;;;;1.13;1.03;;;2.80;1.00;;;;;;5053887;28;20541;-74
2022/01/08 05:31:18;;;;;;;0.50;0.10;;;2.80;1.00;;;;;;5053661;28;20957;-74
2022/01/08 05:33:47;;;;;;;0.60;0.30;;;2.80;1.00;;;;;;5053073;28;20518;-75
2022/01/08 05:36:15;;;;;;;0.50;0.10;;;2.90;1.00;;;;;;5053358;28;20821;-75
2022/01/08 05:38:43;;;;;;;0.50;0.10;;;2.90;1.00;;;;;;5054140;28;20444;-75
2022/01/08 05:41:12;;;;;;;0.50;0.10;;;2.90;1.00;;;;;;5053301;28;20446;-74
2022/01/08 05:43:40;;;;;;;0.50;0.10;;;3.00;1.00;;;;;;5053848;28;20454;-73
2022/01/08 05:46:08;;;;;;;0.50;0.10;;;3.00;1.00;;;;;;5052911;28;20442;-75
2022/01/08 05:48:37;;;;;;;0.50;0.10;;;3.10;1.00;;;;;;5053608;28;20533;-73
2022/01/08 05:51:05;;;;;;;0.50;0.10;;;3.10;1.00;;;;;;5053248;28;20443;-73
2022/01/08 05:53:32;;;;;;;0.50;0.10;;;3.20;1.00;;;;;;5053404;28;20490;-74
2022/01/08 05:56:00;;;;;;;0.50;0.10;;;3.20;1.00;;;;;;5052780;28;20448;-75
2022/01/08 05:58:29;;;;;;;0.50;0.10;;;3.30;1.00;;;;;;5053032;28;20449;-76
2022/01/08 06:00:57;;;;;;;0.50;0.10;;;3.30;1.00;;;;;;5055767;28;20462;-74
2022/01/08 06:03:25;;;;;;;0.50;0.10;;;3.30;1.00;;;;;;5056888;28;20458;-75
2022/01/08 06:05:53;;;;;;;0.50;0.10;;;3.30;1.00;;;;;;5055288;28;20952;-75
2022/01/08 06:08:21;;;;;;;0.50;0.10;;;3.30;1.00;;;;;;5055469;28;20454;-75
2022/01/08 06:10:49;;;;;;;0.50;0.10;;;3.30;1.00;;;;;;5056180;28;20536;-75
2022/01/08 06:13:16;;;;;;;0.50;0.10;;;3.30;1.00;;;;;;5056154;28;20487;-76
2022/01/08 06:15:46;;;;;;;0.50;0.10;;;3.30;1.00;;;;;;5054424;28;20447;-76
2022/01/08 06:18:16;;;;;;;0.50;0.10;;;3.30;1.00;;;;;;5052929;28;20945;-74
2022/01/08 06:20:44;;;;;;;0.50;0.10;;;3.40;1.00;;;;;;5053372;28;20448;-74
2022/01/08 06:23:12;;;;;;;0.50;0.10;;;3.40;1.00;;;;;;5052928;28;20435;-74
2022/01/08 06:25:43;;;;;;;0.50;0.10;;;3.40;1.00;;;;;;5052484;28;20452;-74
2022/01/08 06:28:11;;;;;;;0.50;0.10;;;3.40;1.00;;;;;;5053109;28;20449;-73
2022/01/08 06:30:39;;;;;;;0.50;0.10;;;3.40;1.00;;;;;;5053688;28;20448;-74
2022/01/08 06:33:08;;;;;;;0.50;0.10;;;3.40;1.00;;;;;;5053249;28;20483;-75
2022/01/08 06:35:36;;;;;;;0.50;0.10;;;3.30;1.00;;;;;;5055365;28;20525;-74
2022/01/08 06:38:04;;;;;;;0.50;0.10;;;3.10;1.00;;;;;;5054253;28;20798;-74
2022/01/08 06:40:31;;;;;;;0.50;0.10;;;3.40;1.00;;;;;;5055626;28;20455;-74
2022/01/08 06:43:00;;;;;;;0.50;0.10;;;3.40;1.00;;;;;;5058830;28;20443;-75
2022/01/08 06:45:28;;;;;;;0.50;0.10;;;3.40;1.00;;;;;;5054650;28;20446;-75
2022/01/08 06:47:55;;;;;;;0.50;0.10;;;3.40;1.00;;;;;;5053029;28;20679;-76
2022/01/08 06:50:27;;;;;;;0.50;0.10;;;3.30;1.00;;;;;;5052513;28;20439;-76
2022/01/08 06:52:55;;;;;;;0.50;0.10;;;3.30;1.00;;;;;;5052256;28;20454;-74
2022/01/08 06:55:23;;;;;;;0.50;0.10;;;3.30;1.00;;;;;;5052351;28;20549;-75
2022/01/08 06:57:54;;;;;;;0.50;0.10;;;3.30;1.00;;;;;;5053962;28;20451;-76
2022/01/08 07:00:22;;;;;;;0.50;0.10;;;3.30;1.00;;;;;;5053207;28;20450;-75
2022/01/08 07:02:49;;;;;;;0.50;0.10;;;3.30;1.00;;;;;;5052345;28;20449;-75
2022/01/08 07:05:18;;;;;;;0.50;0.10;;;3.30;1.00;;;;;;5052016;28;20466;-75
2022/01/08 07:07:47;;;;;;;0.50;0.10;;;3.30;1.00;;;;;;5052192;28;20449;-75
2022/01/08 07:10:15;;;;;;;0.50;0.10;;;3.30;1.00;;;;;;5052986;28;20444;-75
2022/01/08 07:12:42;;;;;;;0.50;0.10;;;3.30;1.00;;;;;;5056753;28;20443;-75
2022/01/08 07:15:12;;;;;;;0.50;0.10;;;3.20;1.00;;;;;;5053769;28;20492;-75
2022/01/08 07:17:40;;;;;;;0.50;0.10;;;3.20;1.00;;;;;;5067446;28;20438;-75
2022/01/08 07:20:09;;;;;;;0.50;0.10;;;3.30;1.00;;;;;;5052068;28;20454;-74
2022/01/08 07:22:37;;;;;;;0.50;0.10;;;3.20;1.00;;;;;;5052316;28;20443;-74
2022/01/08 07:25:08;;;;;;;0.50;0.10;;;3.30;1.00;;;;;;5053912;28;20553;-75
2022/01/08 07:27:36;;;;;;;0.50;0.10;;;3.30;1.00;;;;;;5053588;28;20533;-75
2022/01/08 07:30:06;;;;;;;0.50;0.10;;;3.30;1.00;;;;;;5053391;28;20462;-76
2022/01/08 07:32:39;;;;;;;0.50;0.10;;;3.30;1.00;;;;;;5052427;28;20467;-74
2022/01/08 07:35:08;;;;;;;0.50;0.10;;;;;;;;;;5053745;28;20492;-75
2022/01/08 07:37:36;;;;;;;0.50;0.20;;;3.30;1.00;;;;;;5056881;28;20443;-76
2022/01/08 07:40:05;;;;;;;0.50;0.10;;;3.30;1.00;;;;;;5053207;28;20458;-75
2022/01/08 07:42:35;;;;;;;0.50;0.10;;;3.20;1.00;;;;;;5054939;28;20462;-75
2022/01/08 07:45:03;;;;;;;0.50;0.10;;;3.30;1.00;;;;;;5055999;28;20985;-75
2022/01/08 07:47:31;;;;;;;0.50;0.10;;;3.30;1.00;;;;;;5055743;28;20950;-74
2022/01/08 07:49:59;;;;;;;0.50;0.10;;;3.40;1.00;;;;;;5055887;28;20493;-75
2022/01/08 07:52:27;;;;;;;0.50;0.10;;;3.40;1.00;;;;;;5055796;28;20438;-76
2022/01/08 07:54:55;;;;;;;0.50;0.10;;;3.40;1.00;;;;;;5055712;28;20845;-74
2022/01/08 07:57:23;;;;;;;0.50;0.10;;;3.40;1.00;;;;;;5064695;28;20460;-76
2022/01/08 07:59:52;;;;;;;2.40;1.03;;;3.50;1.00;;;;;;5064819;28;20450;-74
2022/01/08 08:02:20;;;;;;;0.67;0.30;;;3.40;1.00;;;;;;5058706;28;20460;-75
2022/01/08 08:04:48;;;;;;;1.23;1.13;;;3.40;1.00;;;;;;5055244;28;20464;-75
2022/01/08 08:07:27;;;;;;;0.60;0.50;;;3.30;1.00;;;;;;5055600;28;20467;-75
2022/01/08 08:09:55;;;;;;;0.50;0.10;;;3.20;1.00;;;;;;5055576;28;20440;-75
2022/01/08 08:12:23;;;;;;;0.90;0.50;;;3.20;1.00;;;;;;5055472;28;20448;-75
2022/01/08 08:14:52;;;;;;;0.97;0.87;;;3.20;1.00;;;;;;5054963;28;20490;-74
2022/01/08 08:17:20;;;;;;;2.10;0.50;;;3.10;1.00;;;;;;5055387;28;20461;-75
2022/01/08 08:19:48;;;;;;;0.50;0.30;;;3.20;1.00;;;;;;5055687;28;20450;-74
2022/01/08 08:22:16;;;;;;;4.53;4.23;;;3.20;1.00;;;;;;5055337;28;20450;-75
2022/01/08 08:24:44;;;;;;;1.27;1.17;;;3.20;1.00;;;;;;5055513;28;20579;-74
2022/01/08 08:27:12;;;;;;;1.13;0.63;;;3.10;1.00;;;;;;5055544;28;20450;-76
2022/01/08 08:29:40;;;;;;;0.50;0.20;;;3.10;1.00;;;;;;5055768;28;20447;-75
2022/01/08 08:32:10;;;;;;;2.87;2.67;;;3.10;1.00;;;;;;5058342;28;20459;-74
2022/01/08 08:34:37;;;;;;;2.40;2.20;;;3.20;1.00;;;;;;5067498;28;20492;-75
2022/01/08 08:37:06;;;;;;;0.50;0.10;;;3.20;1.00;;;;;;5060383;28;20438;-75
2022/01/08 08:39:34;;;;;;;0.67;0.30;;;3.20;1.00;;;;;;5054831;28;20459;-76
2022/01/08 08:42:02;;;;;;;0.50;0.10;;;3.20;1.00;;;;;;5054301;28;20447;-76
2022/01/08 08:44:30;;;;;;;1.67;1.57;;;3.30;1.00;;;;;;5054492;28;20828;-74
2022/01/08 08:46:58;;;;;;;0.50;0.10;;;3.40;1.00;;;;;;5055942;28;20448;-74
2022/01/08 08:49:28;;;;;;;11.83;3.10;;;3.40;1.00;;;;;;5065445;28;20449;-76
2022/01/08 08:51:55;;;;;;;2.97;1.90;;;3.40;1.00;;;;;;5060592;28;20451;-76
2022/01/08 08:54:23;;;;;;;0.50;0.30;;;3.40;1.00;;;;;;5053924;28;20486;-75
2022/01/08 08:56:51;;;;;;;0.80;0.73;;;4.80;1.00;;;;;;5055714;28;20439;-76
2022/01/08 08:59:19;;;;;;;0.80;0.80;;;3.30;1.00;;;;;;5055036;28;20471;-74
2022/01/08 09:01:47;;;;;;;0.60;0.40;;;3.40;1.00;;;;;;5054878;28;20452;-74
2022/01/08 09:04:15;;;;;;;1.70;0.87;;;3.40;1.00;;;;;;5054170;28;20470;-75
2022/01/08 09:06:44;;;;;;;1.47;1.37;;;3.40;1.00;;;;;;5054498;28;20463;-74
2022/01/08 09:09:12;;;;;;;2.30;0.93;;;3.40;1.00;;;;;;5054120;28;20453;-74
2022/01/08 09:11:39;;;;;;;0.60;0.40;;;3.40;1.00;;;;;;5054065;28;20812;-77
2022/01/08 09:14:07;;;;;;;0.50;0.20;;;3.40;1.00;;;;;;5050794;28;20481;-76
2022/01/08 09:16:36;;;;;;;1.93;1.40;;;3.50;1.00;;;;;;5070931;28;20439;-74
2022/01/08 09:19:04;;;;;;;0.93;0.70;;;3.40;1.00;;;;;;5074483;28;20941;-74
2022/01/08 09:21:32;;;;;;;0.50;0.10;;;3.40;1.00;;;;;;5079871;28;20440;-74
2022/01/08 09:24:02;;;;;;;0.50;0.10;;;3.40;1.00;;;;;;5078224;28;20458;-76
2022/01/08 09:26:29;;;;;;;0.60;0.37;;;3.40;1.00;;;;;;5074154;28;20437;-76
2022/01/08 09:28:57;;;;;;;2.10;1.90;;;3.50;1.00;;;;;;5073307;28;20479;-76
2022/01/08 09:31:25;;;;;;;1.73;1.63;;;3.50;1.00;;;;;;5073775;28;20438;-74
2022/01/08 09:33:53;;;;;;;0.50;0.30;;;3.50;1.00;;;;;;5073843;28;20631;-77
2022/01/08 09:36:22;;;;;;;2.20;2.00;;;3.50;1.00;;;;;;5073163;28;21008;-76
2022/01/08 09:38:50;;;;;;;0.50;0.10;;;3.50;1.00;;;;;;5056128;28;20470;-75
2022/01/08 09:41:20;;;;;;;1.23;0.67;;;3.50;1.00;;;;;;5049320;28;20469;-76
2022/01/08 09:43:48;;;;;;;0.50;0.10;;;3.60;1.00;;;;;;5052847;28;20475;-75
2022/01/08 09:46:16;;;;;;;0.50;0.10;;;3.70;1.00;;;;;;5052371;28;20486;-76
2022/01/08 09:48:44;;;;;;;0.50;0.10;;;3.70;1.00;;;;;;5053920;28;20487;-75
2022/01/08 09:51:12;;;;;;;3.70;3.50;;;3.80;1.00;;;;;;5048876;28;20496;-76
2022/01/08 09:53:40;;;;;;;0.50;0.10;;;3.80;1.00;;;;;;5050211;28;20464;-76
2022/01/08 09:56:08;;;;;;;0.60;0.50;;;3.90;1.00;;;;;;5034515;28;20481;-76
2022/01/08 09:58:38;;;;;;;1.37;1.27;;;3.90;1.00;;;;;;5047369;28;20467;-76
2022/01/08 10:01:24;;;;;;;0.60;0.20;;;3.90;1.00;;;;;;5052924;28;20444;-76
2022/01/08 10:03:52;;;;;;;0.50;0.10;;;3.90;1.00;;;;;;5052681;28;20466;-76
2022/01/08 10:06:24;;;;;;;0.50;0.10;;;3.90;1.00;;;;;;5054835;28;20807;-76
2022/01/08 10:08:53;;;;;;;0.60;0.40;;;3.90;1.00;;;;;;5063093;28;20957;-77
2022/01/08 10:11:22;;;;;;;0.50;0.10;;;4.00;1.00;;;;;;5057936;28;20446;-76
2022/01/08 10:14:02;;;;;;;0.57;0.33;;;4.00;1.00;;;;;;5053627;28;20836;-76
2022/01/08 10:19:19;;;;;;;0.50;0.20;;;4.00;1.00;;;;;;5054810;28;20462;-76
2022/01/08 10:21:48;;;;;;;0.50;0.10;;;4.10;1.00;;;;;;5055758;28;20452;-76
2022/01/08 10:24:20;;;;;;;0.50;0.10;;;4.00;1.00;;;;;;5053280;28;20464;-76
2022/01/08 10:26:51;;;;;;;0.50;0.10;;;4.10;1.00;;;;;;5054834;28;20440;-75
2022/01/08 10:29:23;;;;;;;0.50;0.20;;;4.10;1.00;;;;;;5055695;28;20903;-76
2022/01/08 10:31:52;;;;;;;0.50;0.30;;;4.20;1.00;;;;;;5061331;28;20474;-75
2022/01/08 10:34:21;;;;;;;0.50;0.10;;;4.30;1.00;;;;;;5067206;28;20480;-76
2022/01/08 10:36:57;;;;;;;0.50;0.10;;;4.30;1.00;;;;;;5060596;28;20481;-76
2022/01/08 10:39:27;;;;;;;0.50;0.10;;;4.50;1.00;;;;;;5053133;28;20502;-76
2022/01/08 10:41:56;;;;;;;0.50;0.10;;;4.50;1.00;;;;;;5053768;28;20452;-76
2022/01/08 10:44:28;;;;;;;0.50;0.30;;;4.50;1.00;;;;;;5052237;28;21023;-76
2022/01/08 10:46:57;;;;;;;0.50;0.10;;;4.50;1.00;;;;;;5052685;28;20438;-76
2022/01/08 10:49:31;;;;;;;0.50;0.10;;;4.50;1.00;;;;;;5054195;28;20446;-75
2022/01/08 10:52:00;;;;;;;0.50;0.10;;;4.50;1.00;;;;;;5056578;28;20441;-76
2022/01/08 10:54:29;;;;;;;0.50;0.10;;;4.50;1.00;;;;;;5058204;28;20883;-76
2022/01/08 10:57:00;;;;;;;0.50;0.10;;;4.50;1.00;;;;;;5053050;28;20490;-77
2022/01/08 10:59:31;;;;;;;0.50;0.10;;;4.50;1.00;;;;;;5052686;28;20428;-76
2022/01/08 11:02:00;;;;;;;0.50;0.10;;;4.50;1.00;;;;;;5055618;28;20482;-75
2022/01/08 11:04:33;;;;;;;0.50;0.10;;;4.50;1.00;;;;;;5058845;28;20478;-77
2022/01/08 11:07:03;;;;;;;0.50;0.10;;;4.50;1.00;;;;;;5055107;28;21037;-76
2022/01/08 11:09:31;;;;;;;0.60;0.27;;;4.50;1.00;;;;;;5052332;28;20442;-76
2022/01/08 11:12:01;;;;;;;0.50;0.30;;;4.40;1.00;;;;;;5052064;28;20445;-77
2022/01/08 11:17:21;;;;;;;2.57;1.63;;;4.20;1.00;;;;;;5051105;28;20531;-77
2022/01/08 11:19:51;;;;;;;0.50;0.10;;;4.10;1.00;;;;;;5051908;28;20458;-76
2022/01/08 11:22:22;;;;;;;0.60;0.40;;;4.10;1.00;;;;;;5052014;28;20959;-76
2022/01/08 11:24:55;;;;;;;0.60;0.33;;;4.20;1.00;;;;;;5051705;28;20471;-77
2022/01/08 11:27:27;;;;;;;1.70;1.20;;;4.30;1.00;;;;;;5054232;28;20480;-76
2022/01/08 11:30:10;;;;;;;0.77;0.73;;;4.30;1.00;;;;;;5054906;28;21000;-76
2022/01/08 11:32:39;;;;;;;2.57;1.57;;;4.20;1.00;;;;;;5052683;28;20535;-76
2022/01/08 11:35:29;;;;;;;4.77;2.33;;;4.10;1.00;;;;;;5050979;28;20473;-76
2022/01/08 11:38:02;;;;;;;0.50;0.20;;;4.10;1.00;;;;;;5051543;28;20435;-77
2022/01/08 11:40:31;;;;;;;0.80;0.40;;;4.10;1.00;;;;;;5052189;28;20432;-76
2022/01/08 11:43:01;;;;;;;0.50;0.20;;;4.10;1.00;;;;;;5052470;28;20448;-76
2022/01/08 11:45:34;;;;;;;1.10;0.57;;;4.10;1.00;;;;;;5056217;28;20443;-76
2022/01/08 11:48:05;;;;;;;0.70;0.60;;;4.20;1.00;;;;;;5052078;28;20465;-75
2022/01/08 11:50:34;;;;;;;0.50;0.10;;;4.20;1.00;;;;;;5052351;28;20479;-77
2022/01/08 11:53:17;;;;;;;0.50;0.10;;;4.20;1.00;;;;;;5051842;28;20540;-77
2022/01/08 11:55:47;;;;;;;0.50;0.20;;;4.20;1.00;;;;;;5051616;28;20451;-76
2022/01/08 11:58:18;;;;;;;3.70;3.23;;;4.30;1.00;;;;;;5051638;28;20807;-76
2022/01/08 12:00:54;;;;;;;0.50;0.20;;;4.30;1.00;;;;;;5052278;28;20954;-75
2022/01/08 12:03:24;;;;;;;0.50;0.20;;;4.20;1.00;;;;;;5052147;28;20450;-77
2022/01/08 12:05:52;;;;;;;2.20;1.70;;;4.20;1.00;;;;;;5051584;28;20991;-76
2022/01/08 12:08:20;;;;;;;4.27;1.60;;;4.20;1.00;;;;;;5053707;28;20442;-76
2022/01/08 12:11:00;;;;;;;0.70;0.40;;;4.30;1.00;;;;;;5057438;28;20875;-77
2022/01/08 12:13:43;;;;;;;0.50;0.10;;;4.40;1.00;;;;;;5053433;28;20950;-75
2022/01/08 12:16:34;;;;;;;0.80;0.50;;;4.40;1.00;;;;;;5046462;28;20524;-77
2022/01/08 12:19:04;;;;;;;0.83;0.40;;;4.50;1.00;;;;;;5051479;28;20954;-77
2022/01/08 12:21:34;;;;;;;1.37;1.27;;;4.50;1.00;;;;;;5049636;28;20442;-77
2022/01/08 12:24:33;;;;;;;0.50;0.10;;;4.50;1.00;;;;;;5043046;28;20789;-78
2022/01/08 12:27:03;;;;;;;0.50;0.10;;;4.60;1.00;;;;;;5055464;28;20449;-79
2022/01/08 12:29:36;;;;;;;0.50;0.10;;;4.70;1.00;;;;;;5046345;28;20433;-78
2022/01/08 12:32:33;;;;;;;0.50;0.20;;;4.80;1.00;;;;;;5047642;28;20803;-78
2022/01/08 12:35:24;;;;;;;0.50;0.10;;;4.90;1.00;;;;;;5045974;28;20461;-77
2022/01/08 12:37:54;;;;;;;0.50;0.10;;;5.00;1.00;;;;;;5042856;28;21003;-76
2022/01/08 12:40:39;;;;;;;0.50;0.10;;;5.00;1.00;;;;;;5051210;28;20644;-77
2022/01/08 12:43:28;;;;;;;1.33;0.40;;;5.10;1.00;;;;;;5049051;28;20453;-78
2022/01/08 12:46:17;;;;;;;0.50;0.10;;;5.10;1.00;;;;;;5051926;28;20435;-77
2022/01/08 12:49:12;;;;;;;0.50;0.30;;;5.10;1.00;;;;;;5043235;28;20423;-77
2022/01/08 12:52:02;;;;;;;0.50;0.20;;;5.10;1.00;;;;;;5041356;28;20452;-77
2022/01/08 12:54:30;;;;;;;0.50;0.10;;;5.00;1.00;;;;;;5045812;28;20460;-77
2022/01/08 12:57:04;;;;;;;0.50;0.20;;;5.00;1.00;;;;;;5046196;28;20550;-77
2022/01/08 12:59:35;;;;;;;0.50;0.10;;;5.00;1.00;;;;;;5044879;28;20497;-77
2022/01/08 13:02:07;;;;;;;0.57;0.30;;;5.10;1.00;;;;;;5046571;28;20442;-76
2022/01/08 13:04:39;;;;;;;0.50;0.10;;;5.10;1.00;;;;;;5044343;28;20459;-76
2022/01/08 13:07:08;;;;;;;0.50;0.10;;;5.20;1.00;;;;;;5038902;28;20437;-77
2022/01/08 13:09:36;;;;;;;0.50;0.10;;;5.20;1.00;;;;;;5054562;28;20449;-77
2022/01/08 13:12:04;;;;;;;0.50;0.10;;;5.10;1.00;;;;;;5054151;28;20485;-77
2022/01/08 13:14:33;;;;;;;0.50;0.10;;;5.10;1.00;;;;;;5055625;28;20471;-77
2022/01/08 13:17:01;;;;;;;0.50;0.10;;;5.10;1.00;;;;;;5057679;28;20481;-77
2022/01/08 13:19:31;;;;;;;0.83;0.70;;;5.20;1.00;;;;;;5056985;28;20448;-78
2022/01/08 13:22:03;;;;;;;0.50;0.10;;;5.10;1.00;;;;;;5056130;28;20428;-78
2022/01/08 13:24:33;;;;;;;0.50;0.10;;;5.10;1.00;;;;;;5055168;28;20473;-78
2022/01/08 13:27:03;;;;;;;0.50;0.10;;;5.10;1.00;;;;;;5055119;28;20447;-77
2022/01/08 13:29:33;;;;;;;0.50;0.10;;;5.20;1.00;;;;;;5059509;28;20464;-77
2022/01/08 13:32:03;;;;;;;2.20;0.60;;;5.20;1.00;;;;;;5058191;28;20444;-77
2022/01/08 13:34:33;;;;;;;0.50;0.10;;;5.20;1.00;;;;;;5061073;28;20885;-77
2022/01/08 13:37:06;;;;;;;0.50;0.10;;;5.20;1.00;;;;;;5063634;28;20487;-78
2022/01/08 13:39:37;;;;;;;0.50;0.10;;;5.10;1.00;;;;;;5059906;28;20810;-78
2022/01/08 13:42:12;;;;;;;0.50;0.10;;;5.10;1.00;;;;;;5057066;28;20459;-78